createdAt,value
2017-11-04T00:01:05.287Z,6.67
2017-11-04T00:03:31.530Z,5.67
2017-11-04T00:05:57.621Z,5.23
2017-11-04T00:08:23.746Z,5.30
2017-11-04T00:10:49.907Z,5.50
2017-11-04T00:13:15.992Z,5.03
2017-11-04T00:15:42.029Z,5.77
2017-11-04T00:18:08.194Z,7.40
2017-11-04T00:20:34.572Z,6.40
2017-11-04T00:23:00.750Z,8.90
2017-11-04T00:25:33.945Z,7.37
2017-11-04T00:28:00.070Z,6.70
2017-11-04T00:30:26.168Z,6.60
2017-11-04T00:32:52.454Z,6.43
2017-11-04T00:35:18.511Z,6.90
2017-11-04T00:37:44.727Z,6.00
2017-11-04T00:40:10.856Z,6.60
2017-11-04T00:42:37.101Z,7.50
2017-11-04T00:45:03.255Z,7.77
2017-11-04T00:47:29.356Z,6.70
2017-11-04T00:49:55.570Z,8.20
2017-11-04T00:52:21.827Z,6.90
2017-11-04T00:54:47.937Z,7.00
2017-11-04T00:57:13.975Z,6.77
2017-11-04T00:59:40.214Z,6.60
2017-11-04T01:02:06.720Z,6.03
2017-11-04T01:04:32.738Z,6.60
2017-11-04T01:06:58.771Z,6.47
2017-11-04T01:09:24.927Z,6.37
2017-11-04T01:11:50.909Z,7.47
2017-11-04T01:14:16.992Z,5.97
2017-11-04T01:16:43.136Z,6.03
2017-11-04T01:19:09.175Z,6.80
2017-11-04T01:21:36.146Z,5.77
2017-11-04T01:24:03.017Z,6.53
2017-11-04T01:26:29.184Z,5.40
2017-11-04T01:28:55.290Z,6.37
2017-11-04T01:31:21.326Z,6.33
2017-11-04T01:33:47.456Z,6.27
2017-11-04T01:36:13.563Z,5.50
2017-11-04T01:38:39.700Z,5.50
2017-11-04T01:41:05.776Z,5.73
2017-11-04T01:43:31.824Z,5.77
2017-11-04T01:45:57.872Z,5.40
2017-11-04T01:48:23.994Z,5.67
2017-11-04T01:50:50.164Z,5.10
2017-11-04T01:53:16.256Z,6.17
2017-11-04T01:55:42.358Z,6.23
2017-11-04T01:58:08.414Z,5.50
2017-11-04T02:00:34.555Z,5.97
2017-11-04T02:03:00.650Z,5.70
2017-11-04T02:05:26.804Z,5.07
2017-11-04T02:07:52.946Z,5.60
2017-11-04T02:10:19.058Z,5.73
2017-11-04T02:12:45.064Z,5.17
2017-11-04T02:15:11.178Z,5.27
2017-11-04T02:17:37.252Z,6.33
2017-11-04T02:20:03.453Z,5.40
2017-11-04T02:22:29.630Z,5.73
2017-11-04T02:24:55.777Z,6.57
2017-11-04T02:27:21.882Z,5.87
2017-11-04T02:29:48.406Z,5.70
2017-11-04T02:32:14.565Z,6.20
2017-11-04T02:34:40.641Z,5.30
2017-11-04T02:37:07.187Z,6.07
2017-11-04T02:39:33.279Z,6.27
2017-11-04T02:41:59.383Z,6.00
2017-11-04T02:44:25.692Z,5.70
2017-11-04T02:46:51.831Z,5.70
2017-11-04T02:49:17.888Z,5.60
2017-11-04T02:51:43.957Z,5.13
2017-11-04T02:54:10.003Z,7.10
2017-11-04T02:56:36.091Z,5.63
2017-11-04T02:59:02.140Z,6.17
2017-11-04T03:01:28.189Z,6.03
2017-11-04T03:03:54.254Z,6.63
2017-11-04T03:06:20.443Z,5.50
2017-11-04T03:08:46.587Z,5.80
2017-11-04T03:11:12.684Z,6.27
2017-11-04T03:13:38.820Z,5.27
2017-11-04T03:16:04.893Z,6.20
2017-11-04T03:18:31.036Z,6.97
2017-11-04T03:20:57.177Z,6.13
2017-11-04T03:23:23.231Z,6.03
2017-11-04T03:25:49.317Z,6.63
2017-11-04T03:28:16.142Z,7.20
2017-11-04T03:30:42.382Z,7.03
2017-11-04T03:33:08.363Z,7.17
2017-11-04T03:35:34.518Z,6.30
2017-11-04T03:38:00.572Z,6.60
2017-11-04T03:40:26.711Z,6.23
2017-11-04T03:42:52.870Z,6.93
2017-11-04T03:45:18.918Z,7.40
2017-11-04T03:47:45.082Z,8.23
2017-11-04T03:50:11.269Z,10.47
2017-11-04T03:52:37.333Z,9.30
2017-11-04T03:55:03.432Z,7.20
2017-11-04T03:57:29.639Z,8.30
2017-11-04T03:59:55.737Z,7.93
2017-11-04T04:02:21.818Z,9.83
2017-11-04T04:04:47.958Z,7.13
2017-11-04T04:07:14.009Z,8.20
2017-11-04T04:09:40.202Z,10.07
2017-11-04T04:12:06.441Z,8.30
2017-11-04T04:14:32.463Z,8.00
2017-11-04T04:16:58.479Z,6.60
2017-11-04T04:19:24.687Z,7.47
2017-11-04T04:21:50.797Z,7.57
2017-11-04T04:24:16.963Z,7.73
2017-11-04T04:26:43.003Z,7.50
2017-11-04T04:29:09.006Z,7.20
2017-11-04T04:31:35.092Z,10.50
2017-11-04T04:34:01.221Z,9.00
2017-11-04T04:36:27.344Z,8.80
2017-11-04T04:38:53.368Z,7.37
2017-11-04T04:41:19.548Z,8.90
2017-11-04T04:43:45.756Z,6.33
2017-11-04T04:46:11.996Z,6.33
2017-11-04T04:48:38.116Z,5.97
2017-11-04T04:51:04.238Z,5.40
2017-11-04T04:53:30.287Z,5.70
2017-11-04T04:55:56.535Z,5.20
2017-11-04T04:58:22.738Z,5.90
2017-11-04T05:00:48.880Z,5.83
2017-11-04T05:03:15.128Z,5.77
2017-11-04T05:05:41.408Z,5.43
2017-11-04T05:08:07.632Z,5.70
2017-11-04T05:10:33.934Z,5.47
2017-11-04T05:13:00.043Z,4.83
2017-11-04T05:15:26.274Z,4.97
2017-11-04T05:17:52.332Z,5.40
2017-11-04T05:20:18.478Z,4.93
2017-11-04T05:22:44.622Z,5.50
2017-11-04T05:25:10.723Z,5.27
2017-11-04T05:27:36.859Z,6.10
2017-11-04T05:30:03.034Z,6.50
2017-11-04T05:32:29.134Z,6.60
2017-11-04T05:34:55.280Z,6.03
2017-11-04T05:37:21.362Z,7.20
2017-11-04T05:39:47.542Z,6.47
2017-11-04T05:42:13.640Z,7.40
2017-11-04T05:44:39.756Z,6.53
2017-11-04T05:47:06.418Z,6.60
2017-11-04T05:49:32.557Z,5.57
2017-11-04T05:51:58.766Z,6.97
2017-11-04T05:54:25.457Z,7.23
2017-11-04T05:56:51.606Z,6.40
2017-11-04T05:59:17.772Z,6.77
2017-11-04T06:01:43.948Z,6.70
2017-11-04T06:04:10.040Z,6.67
2017-11-04T06:06:36.208Z,5.50
2017-11-04T06:09:02.425Z,7.63
2017-11-04T06:11:28.592Z,6.60
2017-11-04T06:13:54.758Z,6.80
2017-11-04T06:16:20.980Z,7.47
2017-11-04T06:18:46.979Z,5.70
2017-11-04T06:21:13.064Z,6.07
2017-11-04T06:23:39.425Z,5.80
2017-11-04T06:26:05.438Z,11.27
2017-11-04T06:28:31.503Z,9.27
2017-11-04T06:30:57.591Z,9.53
2017-11-04T06:33:23.764Z,8.00
2017-11-04T06:35:49.845Z,7.80
2017-11-04T06:38:16.544Z,7.30
2017-11-04T06:40:42.684Z,6.67
2017-11-04T06:43:08.725Z,8.07
2017-11-04T06:45:34.826Z,6.97
2017-11-04T06:48:00.954Z,7.20
2017-11-04T06:50:27.202Z,8.00
2017-11-04T06:52:53.506Z,8.60
2017-11-04T06:55:26.484Z,7.87
2017-11-04T06:57:52.706Z,5.80
2017-11-04T07:00:18.929Z,7.20
2017-11-04T07:02:52.569Z,6.53
2017-11-04T07:05:19.392Z,6.17
2017-11-04T07:07:45.620Z,7.40
2017-11-04T07:10:11.790Z,8.20
2017-11-04T07:12:37.963Z,7.80
2017-11-04T07:15:04.138Z,8.87
2017-11-04T07:17:30.242Z,8.90
2017-11-04T07:19:57.362Z,10.73
2017-11-04T07:22:23.562Z,7.93
2017-11-04T07:24:49.646Z,7.17
2017-11-04T07:30:26.635Z,7.57
2017-11-04T07:33:02.253Z,7.97
2017-11-04T07:35:47.049Z,7.00
2017-11-04T07:44:09.544Z,7.27
2017-11-04T07:46:56.329Z,7.70
2017-11-04T07:49:33.997Z,7.17
2017-11-04T07:52:01.625Z,7.33
2017-11-04T07:54:47.072Z,8.60
2017-11-04T07:57:13.932Z,8.10
2017-11-04T07:59:40.387Z,7.60
2017-11-04T08:02:06.452Z,9.40
2017-11-04T08:04:32.861Z,10.37
2017-11-04T08:06:59.680Z,11.30
2017-11-04T08:09:25.709Z,11.40
2017-11-04T08:11:51.885Z,10.67
2017-11-04T08:14:19.041Z,12.67
2017-11-04T08:16:45.127Z,11.90
2017-11-04T08:19:17.136Z,12.50
2017-11-04T08:21:43.670Z,12.77
2017-11-04T08:24:09.894Z,12.77
2017-11-04T08:26:36.082Z,11.40
2017-11-04T08:29:02.413Z,11.07
2017-11-04T08:31:28.600Z,11.90
2017-11-04T08:33:54.954Z,10.80
2017-11-04T08:36:21.102Z,11.13
2017-11-04T08:38:47.890Z,11.70
2017-11-04T08:41:14.127Z,11.90
2017-11-04T08:43:40.365Z,12.03
2017-11-04T08:46:06.667Z,11.50
2017-11-04T08:48:33.975Z,12.03
2017-11-04T08:51:00.251Z,12.53
2017-11-04T08:53:26.444Z,12.17
2017-11-04T08:55:52.649Z,13.40
2017-11-04T08:58:18.961Z,12.33
2017-11-04T09:00:45.140Z,12.70
2017-11-04T09:03:11.376Z,13.30
2017-11-04T09:05:37.546Z,13.90
2017-11-04T09:08:04.014Z,13.20
2017-11-04T09:10:30.394Z,12.50
2017-11-04T09:12:56.452Z,12.40
2017-11-04T09:15:23.209Z,12.07
2017-11-04T09:17:49.609Z,12.30
2017-11-04T09:20:15.839Z,11.27
2017-11-04T09:22:41.955Z,13.00
2017-11-04T09:25:08.263Z,10.87
2017-11-04T09:27:34.353Z,11.10
2017-11-04T09:30:00.471Z,10.47
2017-11-04T09:32:27.042Z,11.53
2017-11-04T09:34:53.242Z,10.97
2017-11-04T09:37:19.485Z,9.93
2017-11-04T09:39:45.538Z,12.70
2017-11-04T09:42:11.624Z,12.57
2017-11-04T09:44:37.708Z,10.90
2017-11-04T09:47:03.953Z,11.23
2017-11-04T09:49:30.165Z,12.17
2017-11-04T09:51:56.484Z,11.27
2017-11-04T09:54:22.997Z,11.60
2017-11-04T09:56:49.260Z,11.10
2017-11-04T09:59:15.480Z,11.80
2017-11-04T10:01:43.156Z,11.70
2017-11-04T10:04:09.308Z,10.73
2017-11-04T10:06:35.414Z,11.10
2017-11-04T10:09:01.592Z,11.27
2017-11-04T10:11:27.650Z,11.03
2017-11-04T10:13:53.759Z,11.30
2017-11-04T10:16:20.238Z,10.67
2017-11-04T10:18:46.292Z,9.80
2017-11-04T10:21:12.393Z,10.30
2017-11-04T10:23:39.072Z,10.47
2017-11-04T10:26:05.126Z,10.60
2017-11-04T10:28:31.380Z,10.93
2017-11-04T10:30:57.473Z,10.50
2017-11-04T10:33:23.533Z,10.63
2017-11-04T10:35:49.615Z,10.53
2017-11-04T10:38:16.039Z,9.83
2017-11-04T10:40:43.300Z,9.87
2017-11-04T10:43:09.377Z,8.73
2017-11-04T10:45:35.430Z,9.33
2017-11-04T10:48:01.466Z,9.03
2017-11-04T10:50:27.657Z,9.17
2017-11-04T10:52:53.962Z,8.90
2017-11-04T10:55:20.254Z,8.40
2017-11-04T10:57:49.103Z,7.60
2017-11-04T11:00:15.234Z,8.13
2017-11-04T11:02:41.828Z,8.30
2017-11-04T11:05:08.035Z,7.90
2017-11-04T11:07:34.084Z,7.80
2017-11-04T11:10:00.170Z,7.77
2017-11-04T11:12:26.208Z,7.83
2017-11-04T11:14:52.678Z,7.60
2017-11-04T11:17:18.798Z,7.73
2017-11-04T11:19:44.976Z,7.80
2017-11-04T11:22:11.321Z,7.40
2017-11-04T11:24:37.687Z,7.27
2017-11-04T11:27:04.883Z,8.20
2017-11-04T11:29:30.980Z,7.40
2017-11-04T11:31:57.075Z,7.30
2017-11-04T11:34:24.163Z,7.20
2017-11-04T11:36:50.558Z,7.73
2017-11-04T11:39:18.337Z,7.50
2017-11-04T11:41:44.855Z,7.33
2017-11-04T11:44:11.706Z,7.90
2017-11-04T11:46:38.023Z,7.57
2017-11-04T11:49:04.095Z,7.20
2017-11-04T11:51:30.239Z,8.60
2017-11-04T11:53:56.293Z,7.40
2017-11-04T11:56:22.418Z,8.00
2017-11-04T11:58:48.630Z,8.37
2017-11-04T12:01:15.108Z,7.50
2017-11-04T12:03:41.227Z,7.50
2017-11-04T12:06:07.548Z,7.83
2017-11-04T12:08:33.604Z,7.57
2017-11-04T12:10:59.617Z,8.40
2017-11-04T12:13:26.090Z,7.60
2017-11-04T12:15:52.237Z,7.10
2017-11-04T12:18:18.995Z,8.30
2017-11-04T12:20:45.493Z,8.60
2017-11-04T12:23:11.736Z,7.63
2017-11-04T12:25:37.862Z,8.57
2017-11-04T12:28:04.118Z,8.10
2017-11-04T12:30:30.311Z,8.27
2017-11-04T12:32:56.293Z,8.13
2017-11-04T12:35:22.499Z,8.50
2017-11-04T12:37:48.752Z,7.90
2017-11-04T12:40:14.907Z,7.97
2017-11-04T12:42:41.211Z,7.50
2017-11-04T12:45:07.292Z,9.00
2017-11-04T12:47:33.483Z,8.70
2017-11-04T12:49:59.690Z,7.50
2017-11-04T12:52:25.773Z,7.87
2017-11-04T12:54:51.777Z,8.20
2017-11-04T12:57:17.940Z,7.10
2017-11-04T12:59:44.105Z,7.87
2017-11-04T13:02:10.271Z,7.67
2017-11-04T13:04:36.482Z,7.53
2017-11-04T13:07:02.683Z,7.57
2017-11-04T13:09:28.743Z,7.90
2017-11-04T13:11:55.270Z,8.73
2017-11-04T13:14:21.539Z,8.03
2017-11-04T13:16:47.619Z,8.30
2017-11-04T13:19:13.899Z,8.60
2017-11-04T13:21:40.105Z,8.30
2017-11-04T13:24:06.618Z,8.73
2017-11-04T13:26:32.994Z,7.90
2017-11-04T13:28:59.485Z,8.57
2017-11-04T13:31:25.706Z,8.70
2017-11-04T13:33:52.095Z,7.67
2017-11-04T13:36:18.273Z,7.93
2017-11-04T13:38:44.387Z,8.10
2017-11-04T13:41:11.611Z,9.43
2017-11-04T13:43:37.929Z,9.30
2017-11-04T13:46:04.077Z,8.27
2017-11-04T13:48:30.477Z,8.30
2017-11-04T13:50:56.566Z,7.30
2017-11-04T13:53:22.935Z,7.70
2017-11-04T13:55:49.712Z,8.00
2017-11-04T13:58:16.424Z,7.77
2017-11-04T14:00:42.568Z,8.30
2017-11-04T14:03:09.021Z,7.60
2017-11-04T14:05:35.081Z,8.00
2017-11-04T14:08:01.192Z,8.00
2017-11-04T14:10:27.318Z,7.83
2017-11-04T14:12:53.457Z,7.97
2017-11-04T14:15:19.526Z,8.40
2017-11-04T14:17:45.778Z,8.53
2017-11-04T14:20:11.889Z,8.53
2017-11-04T14:22:38.386Z,8.10
2017-11-04T14:27:55.977Z,8.03
2017-11-04T14:30:22.291Z,8.00
2017-11-04T14:32:52.482Z,7.70
2017-11-04T14:35:31.653Z,7.83
2017-11-04T14:37:58.908Z,7.43
2017-11-04T14:40:25.089Z,7.20
2017-11-04T14:42:59.146Z,7.37
2017-11-04T14:45:27.183Z,7.63
2017-11-04T14:47:53.670Z,7.90
2017-11-04T14:50:23.143Z,7.90
2017-11-04T14:52:50.299Z,7.07
2017-11-04T14:55:16.689Z,8.20
2017-11-04T14:57:42.940Z,8.60
2017-11-04T15:00:09.137Z,9.07
2017-11-04T15:02:35.378Z,9.77
2017-11-04T15:05:05.064Z,9.53
2017-11-04T15:07:31.284Z,9.13
2017-11-04T15:09:57.554Z,9.10
2017-11-04T15:12:23.869Z,8.80
2017-11-04T15:14:50.906Z,8.50
2017-11-04T15:17:32.759Z,8.40
2017-11-04T15:19:59.430Z,9.60
2017-11-04T15:22:34.287Z,7.40
2017-11-04T15:25:00.501Z,8.07
2017-11-04T15:27:27.486Z,7.87
2017-11-04T15:30:06.687Z,7.23
2017-11-04T15:32:32.888Z,7.80
2017-11-04T15:38:12.483Z,7.70
2017-11-04T15:40:39.284Z,8.03
2017-11-04T15:43:16.262Z,7.23
2017-11-04T15:45:50.572Z,7.17
2017-11-04T15:48:23.720Z,5.77
2017-11-04T15:50:57.001Z,6.50
2017-11-04T15:53:23.219Z,6.47
2017-11-04T15:55:49.636Z,6.77
2017-11-04T15:58:15.753Z,6.53
2017-11-04T16:00:42.059Z,6.40
2017-11-04T16:05:45.290Z,6.70
2017-11-04T16:08:11.494Z,6.03
2017-11-04T16:10:37.779Z,7.73
2017-11-04T16:15:39.873Z,5.90
2017-11-04T16:18:06.089Z,6.07
2017-11-04T16:23:05.088Z,5.57
2017-11-04T16:25:31.388Z,6.23
2017-11-04T16:27:57.558Z,5.90
2017-11-04T16:33:24.248Z,7.10
2017-11-04T16:36:11.090Z,6.67
2017-11-04T16:38:46.543Z,6.83
2017-11-04T16:44:35.286Z,6.90
2017-11-04T16:49:49.682Z,7.17
2017-11-04T16:52:26.606Z,13.77
2017-11-04T16:55:14.838Z,7.73
2017-11-04T16:57:50.564Z,7.20
2017-11-04T17:00:17.834Z,6.30
2017-11-04T17:02:45.093Z,5.63
2017-11-04T17:05:11.864Z,5.97
2017-11-04T17:07:38.217Z,7.80
2017-11-04T17:10:04.340Z,21.97
2017-11-04T17:12:30.414Z,18.40
2017-11-04T17:14:56.728Z,7.80
2017-11-04T17:17:22.996Z,7.47
2017-11-04T17:19:49.783Z,7.73
2017-11-04T17:22:16.870Z,7.47
2017-11-04T17:24:42.985Z,8.77
2017-11-04T17:27:09.089Z,8.43
2017-11-04T17:29:35.215Z,10.77
2017-11-04T17:32:01.384Z,11.63
2017-11-04T17:34:27.778Z,8.83
2017-11-04T17:36:54.005Z,7.53
2017-11-04T17:39:20.636Z,6.40
2017-11-04T17:41:46.775Z,6.60
2017-11-04T17:44:12.797Z,6.07
2017-11-04T17:46:38.896Z,6.20
2017-11-04T17:49:05.321Z,6.23
2017-11-04T17:51:31.455Z,12.53
2017-11-04T17:53:57.503Z,6.53
2017-11-04T17:56:24.268Z,5.87
2017-11-04T17:58:50.595Z,7.10
2017-11-04T18:01:17.104Z,7.50
2017-11-04T18:03:43.952Z,11.80
2017-11-04T18:06:10.493Z,9.43
2017-11-04T18:08:36.805Z,7.83
2017-11-04T18:11:02.958Z,7.80
2017-11-04T18:13:29.307Z,7.47
2017-11-04T18:15:55.410Z,5.57
2017-11-04T18:18:22.113Z,6.90
2017-11-04T18:20:48.385Z,6.80
2017-11-04T18:23:14.578Z,7.47
2017-11-04T18:45:18.687Z,6.17
2017-11-04T18:47:44.901Z,5.87
2017-11-04T18:50:11.121Z,5.60
2017-11-04T18:52:37.391Z,5.70
2017-11-04T18:55:03.573Z,5.53
2017-11-04T18:57:29.752Z,7.20
2017-11-04T18:59:56.462Z,6.70
2017-11-04T19:02:22.531Z,7.30
2017-11-04T19:04:48.665Z,6.00
2017-11-04T19:07:16.127Z,5.70
2017-11-04T19:09:42.347Z,5.90
2017-11-04T19:14:39.557Z,6.90
2017-11-04T19:17:06.032Z,5.47
2017-11-04T19:19:32.465Z,7.97
2017-11-04T19:21:58.802Z,6.00
2017-11-04T19:24:25.135Z,5.47
2017-11-04T19:26:51.381Z,5.90
2017-11-04T19:29:17.644Z,7.60
2017-11-04T19:31:43.801Z,8.00
2017-11-04T19:34:10.090Z,7.57
2017-11-04T19:36:36.256Z,7.53
2017-11-04T19:39:02.599Z,7.10
2017-11-04T19:41:28.972Z,6.63
2017-11-04T19:43:55.256Z,6.97
2017-11-04T19:46:21.524Z,6.83
2017-11-04T19:48:47.991Z,5.97
2017-11-04T19:51:14.178Z,6.40
2017-11-04T19:53:40.315Z,7.73
2017-11-04T19:56:06.546Z,7.20
2017-11-04T19:58:32.760Z,7.30
2017-11-04T20:00:58.828Z,5.80
2017-11-04T20:03:25.067Z,5.77
2017-11-04T20:05:51.297Z,5.90
2017-11-04T20:08:17.461Z,5.87
2017-11-04T20:10:43.575Z,5.73
2017-11-04T20:13:10.032Z,5.67
2017-11-04T20:15:36.232Z,6.23
2017-11-04T20:18:02.471Z,6.10
2017-11-04T20:20:28.684Z,5.53
2017-11-04T20:22:54.927Z,6.17
2017-11-04T20:25:21.403Z,5.77
2017-11-04T20:27:48.000Z,6.00
2017-11-04T20:30:14.197Z,5.97
2017-11-04T20:32:40.703Z,6.83
2017-11-04T20:35:06.892Z,6.87
2017-11-04T20:37:33.504Z,6.30
2017-11-04T20:40:01.373Z,5.73
2017-11-04T20:42:27.822Z,5.80
2017-11-04T20:44:54.015Z,5.83
2017-11-04T20:47:20.140Z,24.00
2017-11-04T20:49:46.546Z,10.60
2017-11-04T20:52:12.713Z,10.47
2017-11-04T20:54:39.058Z,5.77
2017-11-04T20:57:05.185Z,6.77
2017-11-04T20:59:31.616Z,9.40
2017-11-04T21:01:57.706Z,7.97
2017-11-04T21:04:25.110Z,10.00
2017-11-04T21:06:51.511Z,7.90
2017-11-04T21:09:17.788Z,8.00
2017-11-04T21:11:44.244Z,9.60
2017-11-04T21:14:10.375Z,9.30
2017-11-04T21:16:36.548Z,8.03
2017-11-04T21:19:03.640Z,9.40
2017-11-04T21:21:29.933Z,11.60
2017-11-04T21:23:56.039Z,10.30
2017-11-04T21:26:22.857Z,9.87
2017-11-04T21:28:49.590Z,9.73
2017-11-04T21:31:15.953Z,9.80
2017-11-04T21:33:42.229Z,9.67
2017-11-04T21:36:08.860Z,9.00
2017-11-04T21:38:35.074Z,8.03
2017-11-04T21:41:01.784Z,7.20
2017-11-04T21:43:28.035Z,6.80
2017-11-04T21:45:54.420Z,6.20
2017-11-04T21:48:20.686Z,6.33
2017-11-04T21:50:46.857Z,6.37
2017-11-04T21:53:13.052Z,6.90
2017-11-04T21:55:39.303Z,10.47
2017-11-04T21:58:05.558Z,11.80
2017-11-04T22:00:32.105Z,11.67
2017-11-04T22:02:58.297Z,8.13
2017-11-04T22:05:24.546Z,7.23
2017-11-04T22:07:51.350Z,7.33
2017-11-04T22:10:17.684Z,6.50
2017-11-04T22:12:43.918Z,7.93
2017-11-04T22:15:10.135Z,8.10
2017-11-04T22:17:36.886Z,7.17
2017-11-04T22:20:03.378Z,8.87
2017-11-04T22:22:29.605Z,7.60
2017-11-04T22:24:56.036Z,14.87
2017-11-04T22:27:22.081Z,16.80
2017-11-04T22:29:48.345Z,12.00
2017-11-04T22:32:14.510Z,14.40
2017-11-04T22:34:40.595Z,10.17
2017-11-04T22:37:06.712Z,8.77
2017-11-04T22:39:32.824Z,9.20
2017-11-04T22:41:58.967Z,7.20
2017-11-04T22:44:25.292Z,9.27
2017-11-04T22:46:51.669Z,11.70
2017-11-04T22:49:17.877Z,8.43
2017-11-04T22:51:44.148Z,7.30
2017-11-04T22:54:10.655Z,8.27
2017-11-04T22:56:36.823Z,15.37
2017-11-04T22:59:03.148Z,13.90
2017-11-04T23:01:29.230Z,11.37
2017-11-04T23:03:55.387Z,8.30
2017-11-04T23:06:21.518Z,11.47
2017-11-04T23:08:47.910Z,13.73
2017-11-04T23:11:14.181Z,11.60
2017-11-04T23:13:40.284Z,12.80
2017-11-04T23:16:06.403Z,23.60
2017-11-04T23:18:32.452Z,22.80
2017-11-04T23:20:58.575Z,12.47
2017-11-04T23:23:24.731Z,10.07
2017-11-04T23:25:50.779Z,13.30
2017-11-04T23:28:16.935Z,11.27
2017-11-04T23:30:43.029Z,8.00
2017-11-04T23:33:09.099Z,7.60
2017-11-04T23:35:35.172Z,7.17
2017-11-04T23:38:01.310Z,6.40
2017-11-04T23:40:27.323Z,6.77
2017-11-04T23:42:53.406Z,6.30
2017-11-04T23:45:19.640Z,7.37
2017-11-04T23:47:45.737Z,8.00
2017-11-04T23:50:11.836Z,8.33
2017-11-04T23:52:37.937Z,8.07
2017-11-04T23:55:04.025Z,7.17
2017-11-04T23:57:30.136Z,7.57
2017-11-04T23:59:56.214Z,8.10
